Pink Coral — 9HPY9 — position and weather

sailwx.info

Track history (hours):
 
Tides and Currents Weather Stations Pressure Air Temp Water Temp Dewpoint Dewpoint Depression Visibility Wind Speed Wind Dir Waves Ship Positions

Pink Coral

Last reported at 2015-Jul-25 22:12 UTC. Time now 2015-Jul-29 02:39 UTC.
Position N 33°55' E 035°31'.

Length 183 m; draft 8.6 m.

Type: Tanker. MMSI: 249344000.

Date/timePositionNaut miles runAvg speedWind from/ knotsBaromVisibWave heightAir tempDewpointWater temp
2015-Jul-25 22:12N 33°55' E 035°31'5 7.3
2015-Jul-25 21:32N 33°55' E 035°25'4213.5
2015-Jul-25 18:27N 34°07' E 034°37'1314.1
2015-Jul-25 17:33N 34°12' E 034°22'1414.5
2015-Jul-25 16:34N 34°17' E 034°06'1514.5
2015-Jul-25 15:31N 34°21' E 033°49'1414.3
2015-Jul-25 14:33N 34°26' E 033°33'1414.0
2015-Jul-25 13:33N 34°30' E 033°17'2 1.8
2015-Jul-25 12:33N 34°31' E 033°15'1 0.5
2015-Jul-25 11:33N 34°30' E 033°15'2 1.8
2015-Jul-25 10:33N 34°30' E 033°17'3 3.5
2015-Jul-25 09:33N 34°31' E 033°21'4 3.6
2015-Jul-25 08:33N 34°33' E 033°25'4 3.6
2015-Jul-25 07:30N 34°34' E 033°29'6 1.2
2015-Jul-25 02:09N 34°33' E 033°36'0 0.4
2015-Jul-25 01:27N 34°33' E 033°36'0 0.2
2015-Jul-24 23:33N 34°33' E 033°36'1 0.3
2015-Jul-24 21:06N 34°33' E 033°35'0 0.3
2015-Jul-24 20:16N 34°33' E 033°35'0 0.4
2015-Jul-24 19:10N 34°33' E 033°34'0 0.5
2015-Jul-24 18:31N 34°33' E 033°34'1 0.6
2015-Jul-24 17:33N 34°34' E 033°33'1 0.8
2015-Jul-24 16:33N 34°34' E 033°32'1 0.9
2015-Jul-24 15:33N 34°34' E 033°31'1 1.0
2015-Jul-24 14:29N 34°34' E 033°30'1 1.0
2015-Jul-24 13:30N 34°33' E 033°29'1 1.0
2015-Jul-24 12:33N 34°33' E 033°27'1 1.1
2015-Jul-24 11:33N 34°33' E 033°26'1 1.1
2015-Jul-24 10:33N 34°32' E 033°25'1 0.6
2015-Jul-24 09:33N 34°32' E 033°25'4 3.2
2015-Jul-24 08:17N 34°34' E 033°29'5 3.9
2015-Jul-24 07:06N 34°33' E 033°24'3 5.1
2015-Jul-24 06:33N 34°31' E 033°21'4 3.7
2015-Jul-24 05:33N 34°30' E 033°16'1 0.7
2015-Jul-24 04:33N 34°31' E 033°17'0 0.4
2015-Jul-24 03:33N 34°30' E 033°17'2 2.3
2015-Jul-24 02:33N 34°31' E 033°20'1 0.5
2015-Jul-24 01:33N 34°30' E 033°20'0 0.4
2015-Jul-24 00:33N 34°30' E 033°20'0 0.2
2015-Jul-23 23:33N 34°30' E 033°20'0 0.2
2015-Jul-23 22:33N 34°30' E 033°19'0 0.3
2015-Jul-23 21:33N 34°30' E 033°19'0 0.5
2015-Jul-23 20:33N 34°30' E 033°18'1 0.5
2015-Jul-23 19:33N 34°31' E 033°18'0 0.4
2015-Jul-23 18:33N 34°31' E 033°17'9 8.9
2015-Jul-23 17:33N 34°29' E 033°07'1313.1
2015-Jul-23 16:33N 34°27' E 032°51'1313.2
2015-Jul-23 15:33N 34°27' E 032°35'1413.1
2015-Jul-23 14:28N 34°29' E 032°18'1212.9
2015-Jul-23 13:33N 34°32' E 032°04'1313.1
2015-Jul-23 12:33N 34°36' E 031°49'1313.3
2015-Jul-23 11:33N 34°41' E 031°34'1513.3
2015-Jul-23 10:25N 34°46' E 031°17'1613.1
2015-Jul-23 09:12N 34°51' E 030°58'5413.1
2015-Jul-23 05:04N 35°07' E 029°55'2012.8
2015-Jul-23 03:32N 35°13' E 029°33'1212.6
2015-Jul-23 02:34N 35°17' E 029°18'1512.9
2015-Jul-23 01:23N 35°22' E 029°01'1113.1
2015-Jul-23 00:33N 35°26' E 028°48'1312.9
2015-Jul-22 23:33N 35°30' E 028°33'1813.0
2015-Jul-22 22:12N 35°35' E 028°13'3413.0
2015-Jul-22 19:33N 35°48' E 027°34'1413.5
2015-Jul-22 18:33N 35°58' E 027°22'2612.8
2015-Jul-22 16:32N 36°18' E 027°01'1312.8
2015-Jul-22 15:33N 36°27' E 026°51'1312.8
2015-Jul-22 14:33N 36°39' E 026°45'1313.1
2015-Jul-22 13:34N 36°51' E 026°39'1312.8
2015-Jul-22 12:33N 37°03' E 026°31'1312.6
2015-Jul-22 11:33N 37°11' E 026°20'1212.4
2015-Jul-22 10:33N 37°19' E 026°08'1312.5
2015-Jul-22 09:32N 37°28' E 025°56'1111.6
2015-Jul-22 08:34N 37°38' E 025°50'189 6.4
2015-Jul-21 03:15N 40°36' E 027°11'912.4
2015-Jul-21 02:32N 40°41' E 027°21'1313.0
2015-Jul-21 01:34N 40°46' E 027°37'5112.5
2015-Jul-20 21:30N 40°54' E 028°43'1010.6
2015-Jul-20 20:33N 40°56' E 028°56'  
2015-Jul-16 10:33N 41°15' E 029°10'19 9.6
2015-Jul-16 08:33N 40°57' E 028°59'9 8.9
2015-Jul-16 07:32N 40°48' E 028°56'0 0.3
2015-Jul-16 06:33N 40°48' E 028°56'0 0.2
2015-Jul-16 05:33N 40°48' E 028°56'0 0.1
2015-Jul-16 04:33N 40°48' E 028°56'0 0.1
2015-Jul-16 03:32N 40°48' E 028°56'0 0.1
2015-Jul-16 02:33N 40°48' E 028°56'0 0.0
2015-Jul-16 00:16N 40°48' E 028°56'0 0.5
2015-Jul-15 23:33N 40°48' E 028°56'1 0.6
2015-Jul-15 22:33N 40°48' E 028°56'  
Track history (hours):
 
Tides and Currents Weather Stations Pressure Air Temp Water Temp Dewpoint Dewpoint Depression Visibility Wind Speed Wind Dir Waves Ship Positions

Pink Coral

Last reported at 2015-Jul-25 22:12 UTC. Time now 2015-Jul-29 02:39 UTC.
Position N 33°55' E 035°31'.

Length 183 m; draft 8.6 m.

Type: Tanker. MMSI: 249344000.

Date/timePositionNaut miles runAvg speedWind from/ knotsBaromVisibWave heightAir tempDewpointWater temp
2015-Jul-25 22:12N 33°55' E 035°31'5 7.3
2015-Jul-25 21:32N 33°55' E 035°25'4213.5
2015-Jul-25 18:27N 34°07' E 034°37'1314.1
2015-Jul-25 17:33N 34°12' E 034°22'1414.5
2015-Jul-25 16:34N 34°17' E 034°06'1514.5
2015-Jul-25 15:31N 34°21' E 033°49'1414.3
2015-Jul-25 14:33N 34°26' E 033°33'1414.0
2015-Jul-25 13:33N 34°30' E 033°17'2 1.8
2015-Jul-25 12:33N 34°31' E 033°15'1 0.5
2015-Jul-25 11:33N 34°30' E 033°15'2 1.8
2015-Jul-25 10:33N 34°30' E 033°17'3 3.5
2015-Jul-25 09:33N 34°31' E 033°21'4 3.6
2015-Jul-25 08:33N 34°33' E 033°25'4 3.6
2015-Jul-25 07:30N 34°34' E 033°29'6 1.2
2015-Jul-25 02:09N 34°33' E 033°36'0 0.4
2015-Jul-25 01:27N 34°33' E 033°36'0 0.2
2015-Jul-24 23:33N 34°33' E 033°36'1 0.3
2015-Jul-24 21:06N 34°33' E 033°35'0 0.3
2015-Jul-24 20:16N 34°33' E 033°35'0 0.4
2015-Jul-24 19:10N 34°33' E 033°34'0 0.5
2015-Jul-24 18:31N 34°33' E 033°34'1 0.6
2015-Jul-24 17:33N 34°34' E 033°33'1 0.8
2015-Jul-24 16:33N 34°34' E 033°32'1 0.9
2015-Jul-24 15:33N 34°34' E 033°31'1 1.0
2015-Jul-24 14:29N 34°34' E 033°30'1 1.0
2015-Jul-24 13:30N 34°33' E 033°29'1 1.0
2015-Jul-24 12:33N 34°33' E 033°27'1 1.1
2015-Jul-24 11:33N 34°33' E 033°26'1 1.1
2015-Jul-24 10:33N 34°32' E 033°25'1 0.6
2015-Jul-24 09:33N 34°32' E 033°25'4 3.2
2015-Jul-24 08:17N 34°34' E 033°29'5 3.9
2015-Jul-24 07:06N 34°33' E 033°24'3 5.1
2015-Jul-24 06:33N 34°31' E 033°21'4 3.7
2015-Jul-24 05:33N 34°30' E 033°16'1 0.7
2015-Jul-24 04:33N 34°31' E 033°17'0 0.4
2015-Jul-24 03:33N 34°30' E 033°17'2 2.3
2015-Jul-24 02:33N 34°31' E 033°20'1 0.5
2015-Jul-24 01:33N 34°30' E 033°20'0 0.4
2015-Jul-24 00:33N 34°30' E 033°20'0 0.2
2015-Jul-23 23:33N 34°30' E 033°20'0 0.2
2015-Jul-23 22:33N 34°30' E 033°19'0 0.3
2015-Jul-23 21:33N 34°30' E 033°19'0 0.5
2015-Jul-23 20:33N 34°30' E 033°18'1 0.5
2015-Jul-23 19:33N 34°31' E 033°18'0 0.4
2015-Jul-23 18:33N 34°31' E 033°17'9 8.9
2015-Jul-23 17:33N 34°29' E 033°07'1313.1
2015-Jul-23 16:33N 34°27' E 032°51'1313.2
2015-Jul-23 15:33N 34°27' E 032°35'1413.1
2015-Jul-23 14:28N 34°29' E 032°18'1212.9
2015-Jul-23 13:33N 34°32' E 032°04'1313.1
2015-Jul-23 12:33N 34°36' E 031°49'1313.3
2015-Jul-23 11:33N 34°41' E 031°34'1513.3
2015-Jul-23 10:25N 34°46' E 031°17'1613.1
2015-Jul-23 09:12N 34°51' E 030°58'5413.1
2015-Jul-23 05:04N 35°07' E 029°55'2012.8
2015-Jul-23 03:32N 35°13' E 029°33'1212.6
2015-Jul-23 02:34N 35°17' E 029°18'1512.9
2015-Jul-23 01:23N 35°22' E 029°01'1113.1
2015-Jul-23 00:33N 35°26' E 028°48'1312.9
2015-Jul-22 23:33N 35°30' E 028°33'1813.0
2015-Jul-22 22:12N 35°35' E 028°13'3413.0
2015-Jul-22 19:33N 35°48' E 027°34'1413.5
2015-Jul-22 18:33N 35°58' E 027°22'2612.8
2015-Jul-22 16:32N 36°18' E 027°01'1312.8
2015-Jul-22 15:33N 36°27' E 026°51'1312.8
2015-Jul-22 14:33N 36°39' E 026°45'1313.1
2015-Jul-22 13:34N 36°51' E 026°39'1312.8
2015-Jul-22 12:33N 37°03' E 026°31'1312.6
2015-Jul-22 11:33N 37°11' E 026°20'1212.4
2015-Jul-22 10:33N 37°19' E 026°08'1312.5
2015-Jul-22 09:32N 37°28' E 025°56'1111.6
2015-Jul-22 08:34N 37°38' E 025°50'189 6.4
2015-Jul-21 03:15N 40°36' E 027°11'912.4
2015-Jul-21 02:32N 40°41' E 027°21'1313.0
2015-Jul-21 01:34N 40°46' E 027°37'5112.5
2015-Jul-20 21:30N 40°54' E 028°43'1010.6
2015-Jul-20 20:33N 40°56' E 028°56'  
2015-Jul-16 10:33N 41°15' E 029°10'19 9.6
2015-Jul-16 08:33N 40°57' E 028°59'9 8.9
2015-Jul-16 07:32N 40°48' E 028°56'0 0.3
2015-Jul-16 06:33N 40°48' E 028°56'0 0.2
2015-Jul-16 05:33N 40°48' E 028°56'0 0.1
2015-Jul-16 04:33N 40°48' E 028°56'0 0.1
2015-Jul-16 03:32N 40°48' E 028°56'0 0.1
2015-Jul-16 02:33N 40°48' E 028°56'0 0.0
2015-Jul-16 00:16N 40°48' E 028°56'0 0.5
2015-Jul-15 23:33N 40°48' E 028°56'1 0.6
2015-Jul-15 22:33N 40°48' E 028°56'  

Dump ship's entire track history